sensor_id;sensor_type;location;lat;lon;timestamp;P1;durP1;ratioP1;P2;durP2;ratioP2
9370;SDS011;4725;48.384;8.984;2022-09-24T00:00:45;6.13;;;4.13;;
9370;SDS011;4725;48.384;8.984;2022-09-24T00:03:16;4.00;;;3.47;;
9370;SDS011;4725;48.384;8.984;2022-09-24T00:05:44;4.33;;;3.50;;
9370;SDS011;4725;48.384;8.984;2022-09-24T00:08:11;4.47;;;3.30;;
9370;SDS011;4725;48.384;8.984;2022-09-24T00:10:39;4.63;;;3.60;;
9370;SDS011;4725;48.384;8.984;2022-09-24T00:13:09;4.30;;;3.50;;
9370;SDS011;4725;48.384;8.984;2022-09-24T00:15:38;6.87;;;3.80;;
9370;SDS011;4725;48.384;8.984;2022-09-24T00:18:07;4.23;;;2.93;;
9370;SDS011;4725;48.384;8.984;2022-09-24T00:20:36;4.70;;;2.93;;
9370;SDS011;4725;48.384;8.984;2022-09-24T00:23:03;4.27;;;3.47;;
9370;SDS011;4725;48.384;8.984;2022-09-24T00:25:31;4.40;;;3.90;;
9370;SDS011;4725;48.384;8.984;2022-09-24T00:28:14;3.10;;;2.80;;
9370;SDS011;4725;48.384;8.984;2022-09-24T00:30:41;4.57;;;3.53;;
9370;SDS011;4725;48.384;8.984;2022-09-24T00:33:09;4.27;;;3.20;;
9370;SDS011;4725;48.384;8.984;2022-09-24T00:35:36;4.23;;;3.70;;
9370;SDS011;4725;48.384;8.984;2022-09-24T00:38:05;10.50;;;3.67;;
9370;SDS011;4725;48.384;8.984;2022-09-24T00:40:33;4.20;;;3.47;;
9370;SDS011;4725;48.384;8.984;2022-09-24T00:45:49;3.33;;;3.03;;
9370;SDS011;4725;48.384;8.984;2022-09-24T00:48:17;4.20;;;3.40;;
9370;SDS011;4725;48.384;8.984;2022-09-24T00:50:45;3.47;;;3.17;;
9370;SDS011;4725;48.384;8.984;2022-09-24T00:53:14;4.53;;;3.37;;
9370;SDS011;4725;48.384;8.984;2022-09-24T00:55:44;3.43;;;3.10;;
9370;SDS011;4725;48.384;8.984;2022-09-24T00:58:15;4.13;;;3.13;;
9370;SDS011;4725;48.384;8.984;2022-09-24T01:00:44;3.40;;;2.97;;
9370;SDS011;4725;48.384;8.984;2022-09-24T01:03:13;7.07;;;3.60;;
9370;SDS011;4725;48.384;8.984;2022-09-24T01:05:43;4.93;;;3.37;;
9370;SDS011;4725;48.384;8.984;2022-09-24T01:08:11;3.63;;;3.10;;
9370;SDS011;4725;48.384;8.984;2022-09-24T01:10:42;3.30;;;2.93;;
9370;SDS011;4725;48.384;8.984;2022-09-24T01:16:27;5.20;;;3.00;;
9370;SDS011;4725;48.384;8.984;2022-09-24T01:19:04;4.73;;;3.17;;
9370;SDS011;4725;48.384;8.984;2022-09-24T01:21:37;4.67;;;3.17;;
9370;SDS011;4725;48.384;8.984;2022-09-24T01:24:24;3.13;;;2.87;;
9370;SDS011;4725;48.384;8.984;2022-09-24T01:27:03;3.10;;;2.70;;
9370;SDS011;4725;48.384;8.984;2022-09-24T01:29:38;4.33;;;3.20;;
9370;SDS011;4725;48.384;8.984;2022-09-24T01:32:13;4.90;;;3.30;;
9370;SDS011;4725;48.384;8.984;2022-09-24T01:34:45;3.23;;;2.93;;
9370;SDS011;4725;48.384;8.984;2022-09-24T01:37:15;6.30;;;3.53;;
9370;SDS011;4725;48.384;8.984;2022-09-24T01:39:47;7.63;;;5.07;;
9370;SDS011;4725;48.384;8.984;2022-09-24T01:42:17;5.93;;;3.60;;
9370;SDS011;4725;48.384;8.984;2022-09-24T01:44:48;7.00;;;3.90;;
9370;SDS011;4725;48.384;8.984;2022-09-24T01:47:17;5.17;;;3.67;;
9370;SDS011;4725;48.384;8.984;2022-09-24T01:49:49;5.23;;;3.43;;
9370;SDS011;4725;48.384;8.984;2022-09-24T01:52:18;5.17;;;3.83;;
9370;SDS011;4725;48.384;8.984;2022-09-24T01:54:49;4.03;;;3.63;;
9370;SDS011;4725;48.384;8.984;2022-09-24T01:57:18;4.23;;;3.83;;
9370;SDS011;4725;48.384;8.984;2022-09-24T01:59:51;3.73;;;3.17;;
9370;SDS011;4725;48.384;8.984;2022-09-24T02:02:23;4.60;;;3.47;;
9370;SDS011;4725;48.384;8.984;2022-09-24T02:04:56;6.53;;;3.20;;
9370;SDS011;4725;48.384;8.984;2022-09-24T02:07:29;3.40;;;3.10;;
9370;SDS011;4725;48.384;8.984;2022-09-24T02:10:00;6.40;;;3.23;;
9370;SDS011;4725;48.384;8.984;2022-09-24T02:12:28;4.93;;;3.27;;
9370;SDS011;4725;48.384;8.984;2022-09-24T02:15:02;4.10;;;3.30;;
9370;SDS011;4725;48.384;8.984;2022-09-24T02:17:33;3.27;;;2.60;;
9370;SDS011;4725;48.384;8.984;2022-09-24T02:20:04;5.20;;;3.33;;
9370;SDS011;4725;48.384;8.984;2022-09-24T02:22:37;4.50;;;3.23;;
9370;SDS011;4725;48.384;8.984;2022-09-24T02:25:07;6.10;;;3.80;;
9370;SDS011;4725;48.384;8.984;2022-09-24T02:27:38;6.40;;;3.50;;
9370;SDS011;4725;48.384;8.984;2022-09-24T02:30:08;9.30;;;3.60;;
9370;SDS011;4725;48.384;8.984;2022-09-24T02:32:36;4.87;;;3.80;;
9370;SDS011;4725;48.384;8.984;2022-09-24T02:35:06;6.17;;;3.70;;
9370;SDS011;4725;48.384;8.984;2022-09-24T02:37:35;11.13;;;4.27;;
9370;SDS011;4725;48.384;8.984;2022-09-24T02:40:04;4.47;;;3.47;;
9370;SDS011;4725;48.384;8.984;2022-09-24T02:42:34;6.37;;;3.37;;
9370;SDS011;4725;48.384;8.984;2022-09-24T02:45:01;3.90;;;3.40;;
9370;SDS011;4725;48.384;8.984;2022-09-24T02:47:31;4.10;;;3.43;;
9370;SDS011;4725;48.384;8.984;2022-09-24T02:49:58;3.70;;;3.00;;
9370;SDS011;4725;48.384;8.984;2022-09-24T02:52:25;5.30;;;3.50;;
9370;SDS011;4725;48.384;8.984;2022-09-24T02:54:52;5.10;;;3.23;;
9370;SDS011;4725;48.384;8.984;2022-09-24T02:57:19;3.70;;;3.30;;
9370;SDS011;4725;48.384;8.984;2022-09-24T02:59:46;4.67;;;3.53;;
9370;SDS011;4725;48.384;8.984;2022-09-24T03:02:13;4.27;;;2.87;;
9370;SDS011;4725;48.384;8.984;2022-09-24T03:04:41;4.17;;;3.03;;
9370;SDS011;4725;48.384;8.984;2022-09-24T03:07:08;4.90;;;3.43;;
9370;SDS011;4725;48.384;8.984;2022-09-24T03:09:38;3.73;;;3.00;;
9370;SDS011;4725;48.384;8.984;2022-09-24T03:12:05;3.00;;;2.60;;
9370;SDS011;4725;48.384;8.984;2022-09-24T03:14:32;3.40;;;2.83;;
9370;SDS011;4725;48.384;8.984;2022-09-24T03:16:59;3.90;;;2.97;;
9370;SDS011;4725;48.384;8.984;2022-09-24T03:19:26;4.77;;;3.37;;
9370;SDS011;4725;48.384;8.984;2022-09-24T03:21:54;4.13;;;3.00;;
9370;SDS011;4725;48.384;8.984;2022-09-24T03:24:21;3.87;;;3.30;;
9370;SDS011;4725;48.384;8.984;2022-09-24T03:26:48;5.83;;;3.07;;
9370;SDS011;4725;48.384;8.984;2022-09-24T03:29:15;3.30;;;2.90;;
9370;SDS011;4725;48.384;8.984;2022-09-24T03:32:02;4.50;;;2.90;;
9370;SDS011;4725;48.384;8.984;2022-09-24T03:34:28;3.27;;;2.97;;
9370;SDS011;4725;48.384;8.984;2022-09-24T03:36:57;5.93;;;3.43;;
9370;SDS011;4725;48.384;8.984;2022-09-24T03:39:24;3.60;;;3.30;;
9370;SDS011;4725;48.384;8.984;2022-09-24T03:41:51;3.87;;;3.30;;
9370;SDS011;4725;48.384;8.984;2022-09-24T03:44:18;4.23;;;3.40;;
9370;SDS011;4725;48.384;8.984;2022-09-24T03:46:45;5.17;;;3.20;;
9370;SDS011;4725;48.384;8.984;2022-09-24T03:49:14;5.43;;;3.30;;
9370;SDS011;4725;48.384;8.984;2022-09-24T03:51:41;4.30;;;3.30;;
9370;SDS011;4725;48.384;8.984;2022-09-24T03:54:09;6.70;;;3.20;;
9370;SDS011;4725;48.384;8.984;2022-09-24T03:56:37;3.77;;;3.20;;
9370;SDS011;4725;48.384;8.984;2022-09-24T03:59:03;5.33;;;2.87;;
9370;SDS011;4725;48.384;8.984;2022-09-24T04:01:31;3.40;;;3.10;;
9370;SDS011;4725;48.384;8.984;2022-09-24T04:03:59;3.30;;;2.73;;
9370;SDS011;4725;48.384;8.984;2022-09-24T04:06:27;4.30;;;3.33;;
9370;SDS011;4725;48.384;8.984;2022-09-24T04:08:55;4.97;;;3.80;;
9370;SDS011;4725;48.384;8.984;2022-09-24T04:11:23;5.30;;;3.13;;
9370;SDS011;4725;48.384;8.984;2022-09-24T04:13:51;5.00;;;3.67;;
9370;SDS011;4725;48.384;8.984;2022-09-24T04:16:18;6.60;;;3.73;;
9370;SDS011;4725;48.384;8.984;2022-09-24T04:18:45;5.00;;;3.40;;
9370;SDS011;4725;48.384;8.984;2022-09-24T04:21:12;4.07;;;3.67;;
9370;SDS011;4725;48.384;8.984;2022-09-24T04:23:39;8.87;;;4.40;;
9370;SDS011;4725;48.384;8.984;2022-09-24T04:26:07;6.47;;;4.17;;
9370;SDS011;4725;48.384;8.984;2022-09-24T04:28:35;6.17;;;4.00;;
9370;SDS011;4725;48.384;8.984;2022-09-24T04:31:02;6.50;;;3.93;;
9370;SDS011;4725;48.384;8.984;2022-09-24T04:33:30;6.73;;;4.37;;
9370;SDS011;4725;48.384;8.984;2022-09-24T04:35:57;4.33;;;3.93;;
9370;SDS011;4725;48.384;8.984;2022-09-24T04:38:24;8.63;;;4.13;;
9370;SDS011;4725;48.384;8.984;2022-09-24T04:40:51;8.37;;;4.17;;
9370;SDS011;4725;48.384;8.984;2022-09-24T04:43:18;6.80;;;4.20;;
9370;SDS011;4725;48.384;8.984;2022-09-24T04:45:46;5.27;;;4.50;;
9370;SDS011;4725;48.384;8.984;2022-09-24T04:48:13;6.80;;;4.33;;
9370;SDS011;4725;48.384;8.984;2022-09-24T04:50:40;4.67;;;4.27;;
9370;SDS011;4725;48.384;8.984;2022-09-24T04:53:07;4.43;;;4.03;;
9370;SDS011;4725;48.384;8.984;2022-09-24T04:55:34;10.10;;;6.33;;
9370;SDS011;4725;48.384;8.984;2022-09-24T04:58:01;9.00;;;6.57;;
9370;SDS011;4725;48.384;8.984;2022-09-24T05:00:28;7.83;;;6.50;;
9370;SDS011;4725;48.384;8.984;2022-09-24T05:02:59;6.20;;;5.00;;
9370;SDS011;4725;48.384;8.984;2022-09-24T05:05:28;9.73;;;5.90;;
9370;SDS011;4725;48.384;8.984;2022-09-24T05:07:56;5.03;;;3.83;;
9370;SDS011;4725;48.384;8.984;2022-09-24T05:10:23;5.17;;;4.40;;
9370;SDS011;4725;48.384;8.984;2022-09-24T05:12:50;7.47;;;4.10;;
9370;SDS011;4725;48.384;8.984;2022-09-24T05:15:17;3.93;;;3.57;;
9370;SDS011;4725;48.384;8.984;2022-09-24T05:17:44;5.43;;;4.07;;
9370;SDS011;4725;48.384;8.984;2022-09-24T05:20:13;5.13;;;4.10;;
9370;SDS011;4725;48.384;8.984;2022-09-24T05:22:41;8.43;;;6.47;;
9370;SDS011;4725;48.384;8.984;2022-09-24T05:25:08;8.73;;;4.67;;
9370;SDS011;4725;48.384;8.984;2022-09-24T05:27:36;5.33;;;3.80;;
9370;SDS011;4725;48.384;8.984;2022-09-24T05:30:07;6.93;;;4.67;;
9370;SDS011;4725;48.384;8.984;2022-09-24T05:32:35;5.37;;;4.07;;
9370;SDS011;4725;48.384;8.984;2022-09-24T05:35:02;6.57;;;4.60;;
9370;SDS011;4725;48.384;8.984;2022-09-24T05:37:33;7.47;;;4.20;;
9370;SDS011;4725;48.384;8.984;2022-09-24T05:40:00;5.10;;;4.23;;
9370;SDS011;4725;48.384;8.984;2022-09-24T05:42:47;7.53;;;4.13;;
9370;SDS011;4725;48.384;8.984;2022-09-24T05:45:14;9.63;;;4.43;;
9370;SDS011;4725;48.384;8.984;2022-09-24T05:47:42;8.97;;;4.50;;
9370;SDS011;4725;48.384;8.984;2022-09-24T05:50:09;7.00;;;4.73;;
9370;SDS011;4725;48.384;8.984;2022-09-24T05:52:39;5.97;;;4.17;;
9370;SDS011;4725;48.384;8.984;2022-09-24T05:55:07;5.30;;;4.40;;
9370;SDS011;4725;48.384;8.984;2022-09-24T05:57:36;6.57;;;4.50;;
9370;SDS011;4725;48.384;8.984;2022-09-24T06:00:05;6.97;;;4.83;;
9370;SDS011;4725;48.384;8.984;2022-09-24T06:02:33;5.10;;;4.13;;
9370;SDS011;4725;48.384;8.984;2022-09-24T06:05:00;13.03;;;5.37;;
9370;SDS011;4725;48.384;8.984;2022-09-24T06:07:27;6.17;;;4.57;;
9370;SDS011;4725;48.384;8.984;2022-09-24T06:09:56;6.23;;;4.20;;
9370;SDS011;4725;48.384;8.984;2022-09-24T06:12:24;4.37;;;3.97;;
9370;SDS011;4725;48.384;8.984;2022-09-24T06:14:52;4.87;;;3.97;;
9370;SDS011;4725;48.384;8.984;2022-09-24T06:17:19;4.80;;;4.33;;
9370;SDS011;4725;48.384;8.984;2022-09-24T06:19:46;5.60;;;4.47;;
9370;SDS011;4725;48.384;8.984;2022-09-24T06:22:13;5.57;;;4.43;;
9370;SDS011;4725;48.384;8.984;2022-09-24T06:24:40;5.57;;;4.40;;
9370;SDS011;4725;48.384;8.984;2022-09-24T06:27:08;12.30;;;4.73;;
9370;SDS011;4725;48.384;8.984;2022-09-24T06:29:35;5.33;;;4.17;;
9370;SDS011;4725;48.384;8.984;2022-09-24T06:32:02;5.13;;;4.63;;
9370;SDS011;4725;48.384;8.984;2022-09-24T06:34:29;6.97;;;5.00;;
9370;SDS011;4725;48.384;8.984;2022-09-24T06:36:57;5.27;;;4.77;;
9370;SDS011;4725;48.384;8.984;2022-09-24T06:39:24;5.83;;;4.57;;
9370;SDS011;4725;48.384;8.984;2022-09-24T06:41:51;7.93;;;4.40;;
9370;SDS011;4725;48.384;8.984;2022-09-24T06:44:19;4.80;;;4.23;;
9370;SDS011;4725;48.384;8.984;2022-09-24T06:46:46;8.07;;;4.77;;
9370;SDS011;4725;48.384;8.984;2022-09-24T06:49:13;10.63;;;5.17;;
9370;SDS011;4725;48.384;8.984;2022-09-24T06:51:42;7.23;;;4.57;;
9370;SDS011;4725;48.384;8.984;2022-09-24T06:54:10;5.27;;;4.17;;
9370;SDS011;4725;48.384;8.984;2022-09-24T06:56:36;4.87;;;4.33;;
9370;SDS011;4725;48.384;8.984;2022-09-24T06:59:04;5.10;;;4.17;;
9370;SDS011;4725;48.384;8.984;2022-09-24T07:01:34;5.87;;;4.90;;
9370;SDS011;4725;48.384;8.984;2022-09-24T07:04:01;5.73;;;5.23;;
9370;SDS011;4725;48.384;8.984;2022-09-24T07:06:28;5.23;;;4.73;;
9370;SDS011;4725;48.384;8.984;2022-09-24T07:09:15;5.30;;;4.57;;
9370;SDS011;4725;48.384;8.984;2022-09-24T07:11:42;9.00;;;5.50;;
9370;SDS011;4725;48.384;8.984;2022-09-24T07:14:10;10.67;;;5.60;;
9370;SDS011;4725;48.384;8.984;2022-09-24T07:16:38;6.90;;;4.90;;
9370;SDS011;4725;48.384;8.984;2022-09-24T07:19:05;7.03;;;4.83;;
9370;SDS011;4725;48.384;8.984;2022-09-24T07:21:32;6.30;;;4.43;;
9370;SDS011;4725;48.384;8.984;2022-09-24T07:23:59;5.97;;;4.67;;
9370;SDS011;4725;48.384;8.984;2022-09-24T07:26:27;6.07;;;3.80;;
9370;SDS011;4725;48.384;8.984;2022-09-24T07:28:54;4.90;;;3.77;;
9370;SDS011;4725;48.384;8.984;2022-09-24T07:31:21;7.33;;;3.90;;
9370;SDS011;4725;48.384;8.984;2022-09-24T07:33:49;4.37;;;3.97;;
9370;SDS011;4725;48.384;8.984;2022-09-24T07:36:17;4.27;;;3.70;;
9370;SDS011;4725;48.384;8.984;2022-09-24T07:38:44;5.80;;;3.80;;
9370;SDS011;4725;48.384;8.984;2022-09-24T07:41:11;4.70;;;3.47;;
9370;SDS011;4725;48.384;8.984;2022-09-24T07:43:38;4.80;;;3.93;;
9370;SDS011;4725;48.384;8.984;2022-09-24T07:46:08;4.60;;;4.07;;
9370;SDS011;4725;48.384;8.984;2022-09-24T07:48:34;5.23;;;4.13;;
9370;SDS011;4725;48.384;8.984;2022-09-24T07:51:03;6.43;;;4.80;;
9370;SDS011;4725;48.384;8.984;2022-09-24T07:53:30;5.43;;;4.43;;
9370;SDS011;4725;48.384;8.984;2022-09-24T07:55:57;5.73;;;4.80;;
9370;SDS011;4725;48.384;8.984;2022-09-24T07:58:25;5.80;;;5.03;;
9370;SDS011;4725;48.384;8.984;2022-09-24T08:00:52;6.47;;;4.10;;
9370;SDS011;4725;48.384;8.984;2022-09-24T08:03:22;4.80;;;3.87;;
9370;SDS011;4725;48.384;8.984;2022-09-24T08:05:49;4.90;;;3.53;;
9370;SDS011;4725;48.384;8.984;2022-09-24T08:08:21;3.97;;;3.33;;
9370;SDS011;4725;48.384;8.984;2022-09-24T08:10:48;5.23;;;3.47;;
9370;SDS011;4725;48.384;8.984;2022-09-24T08:13:15;5.70;;;3.27;;
9370;SDS011;4725;48.384;8.984;2022-09-24T08:15:42;4.80;;;3.97;;
9370;SDS011;4725;48.384;8.984;2022-09-24T08:18:09;4.30;;;3.00;;
9370;SDS011;4725;48.384;8.984;2022-09-24T08:20:36;3.43;;;3.00;;
9370;SDS011;4725;48.384;8.984;2022-09-24T08:23:04;3.30;;;2.80;;
9370;SDS011;4725;48.384;8.984;2022-09-24T08:25:35;2.83;;;2.53;;
9370;SDS011;4725;48.384;8.984;2022-09-24T08:28:02;2.60;;;2.40;;
9370;SDS011;4725;48.384;8.984;2022-09-24T08:30:29;6.03;;;2.27;;
9370;SDS011;4725;48.384;8.984;2022-09-24T08:32:57;3.67;;;1.87;;
9370;SDS011;4725;48.384;8.984;2022-09-24T08:35:24;2.60;;;2.10;;
9370;SDS011;4725;48.384;8.984;2022-09-24T08:37:52;2.80;;;2.33;;
9370;SDS011;4725;48.384;8.984;2022-09-24T08:40:20;7.57;;;2.23;;
9370;SDS011;4725;48.384;8.984;2022-09-24T08:42:52;2.40;;;2.20;;
9370;SDS011;4725;48.384;8.984;2022-09-24T08:45:25;3.03;;;2.03;;
9370;SDS011;4725;48.384;8.984;2022-09-24T08:48:10;2.50;;;1.83;;
9370;SDS011;4725;48.384;8.984;2022-09-24T08:50:42;2.40;;;2.20;;
9370;SDS011;4725;48.384;8.984;2022-09-24T08:53:14;3.73;;;2.10;;
9370;SDS011;4725;48.384;8.984;2022-09-24T08:55:45;3.17;;;1.97;;
9370;SDS011;4725;48.384;8.984;2022-09-24T08:58:25;2.43;;;2.03;;
9370;SDS011;4725;48.384;8.984;2022-09-24T09:01:04;2.30;;;2.10;;
9370;SDS011;4725;48.384;8.984;2022-09-24T09:03:41;2.40;;;2.10;;
9370;SDS011;4725;48.384;8.984;2022-09-24T09:06:12;5.33;;;2.23;;
9370;SDS011;4725;48.384;8.984;2022-09-24T09:09:02;2.97;;;2.10;;
9370;SDS011;4725;48.384;8.984;2022-09-24T09:11:36;2.60;;;2.10;;
9370;SDS011;4725;48.384;8.984;2022-09-24T09:14:08;2.30;;;2.00;;
9370;SDS011;4725;48.384;8.984;2022-09-24T09:16:41;4.43;;;2.60;;
9370;SDS011;4725;48.384;8.984;2022-09-24T09:19:12;3.03;;;2.20;;
9370;SDS011;4725;48.384;8.984;2022-09-24T09:21:42;2.60;;;2.13;;
9370;SDS011;4725;48.384;8.984;2022-09-24T09:24:13;2.93;;;2.20;;
9370;SDS011;4725;48.384;8.984;2022-09-24T09:26:43;3.30;;;2.90;;
9370;SDS011;4725;48.384;8.984;2022-09-24T09:29:15;3.83;;;2.63;;
9370;SDS011;4725;48.384;8.984;2022-09-24T09:31:45;2.80;;;2.60;;
9370;SDS011;4725;48.384;8.984;2022-09-24T09:34:31;3.17;;;2.33;;
9370;SDS011;4725;48.384;8.984;2022-09-24T09:37:08;2.33;;;2.00;;
9370;SDS011;4725;48.384;8.984;2022-09-24T09:39:44;4.10;;;2.30;;
9370;SDS011;4725;48.384;8.984;2022-09-24T09:42:22;5.27;;;2.10;;
9370;SDS011;4725;48.384;8.984;2022-09-24T09:44:55;3.67;;;2.47;;
9370;SDS011;4725;48.384;8.984;2022-09-24T09:47:24;5.03;;;2.67;;
9370;SDS011;4725;48.384;8.984;2022-09-24T09:50:05;4.60;;;2.37;;
9370;SDS011;4725;48.384;8.984;2022-09-24T09:52:38;2.63;;;1.97;;
9370;SDS011;4725;48.384;8.984;2022-09-24T09:55:06;4.27;;;2.30;;
9370;SDS011;4725;48.384;8.984;2022-09-24T09:57:35;3.60;;;2.07;;
9370;SDS011;4725;48.384;8.984;2022-09-24T10:00:16;2.00;;;1.70;;
9370;SDS011;4725;48.384;8.984;2022-09-24T10:02:50;2.63;;;2.10;;
9370;SDS011;4725;48.384;8.984;2022-09-24T10:05:18;2.30;;;1.90;;
9370;SDS011;4725;48.384;8.984;2022-09-24T10:07:48;2.07;;;1.80;;
9370;SDS011;4725;48.384;8.984;2022-09-24T10:10:16;2.73;;;2.03;;
9370;SDS011;4725;48.384;8.984;2022-09-24T10:12:45;6.80;;;2.10;;
9370;SDS011;4725;48.384;8.984;2022-09-24T10:15:16;3.07;;;2.20;;
9370;SDS011;4725;48.384;8.984;2022-09-24T10:17:45;2.10;;;1.90;;
9370;SDS011;4725;48.384;8.984;2022-09-24T10:20:15;2.23;;;1.80;;
9370;SDS011;4725;48.384;8.984;2022-09-24T10:22:46;3.57;;;2.00;;
9370;SDS011;4725;48.384;8.984;2022-09-24T10:25:16;2.40;;;2.20;;
9370;SDS011;4725;48.384;8.984;2022-09-24T10:27:48;2.97;;;2.20;;
9370;SDS011;4725;48.384;8.984;2022-09-24T10:30:19;2.55;;;2.30;;
9370;SDS011;4725;48.384;8.984;2022-09-24T10:32:57;2.93;;;2.63;;
9370;SDS011;4725;48.384;8.984;2022-09-24T10:35:27;2.20;;;2.00;;
9370;SDS011;4725;48.384;8.984;2022-09-24T10:37:56;3.85;;;2.50;;
9370;SDS011;4725;48.384;8.984;2022-09-24T10:40:25;2.22;;;2.00;;
9370;SDS011;4725;48.384;8.984;2022-09-24T10:42:55;3.08;;;2.10;;
9370;SDS011;4725;48.384;8.984;2022-09-24T10:45:27;4.82;;;2.20;;
9370;SDS011;4725;48.384;8.984;2022-09-24T10:48:22;4.18;;;1.90;;
9370;SDS011;4725;48.384;8.984;2022-09-24T10:50:55;2.97;;;2.67;;
9370;SDS011;4725;48.384;8.984;2022-09-24T10:53:40;3.33;;;2.90;;
9370;SDS011;4725;48.384;8.984;2022-09-24T10:56:20;4.25;;;3.00;;
9370;SDS011;4725;48.384;8.984;2022-09-24T10:59:01;3.47;;;3.15;;
9370;SDS011;4725;48.384;8.984;2022-09-24T11:01:40;4.68;;;2.97;;
9370;SDS011;4725;48.384;8.984;2022-09-24T11:04:21;4.80;;;2.53;;
9370;SDS011;4725;48.384;8.984;2022-09-24T11:09:57;4.35;;;3.15;;
9370;SDS011;4725;48.384;8.984;2022-09-24T11:12:33;3.22;;;2.72;;
9370;SDS011;4725;48.384;8.984;2022-09-24T11:15:14;3.50;;;3.05;;
9370;SDS011;4725;48.384;8.984;2022-09-24T11:17:55;8.65;;;2.90;;
9370;SDS011;4725;48.384;8.984;2022-09-24T11:20:34;4.05;;;2.38;;
9370;SDS011;4725;48.384;8.984;2022-09-24T11:26:01;5.10;;;4.60;;
9370;SDS011;4725;48.384;8.984;2022-09-24T11:31:32;4.00;;;2.97;;
9370;SDS011;4725;48.384;8.984;2022-09-24T11:34:11;4.00;;;3.58;;
9370;SDS011;4725;48.384;8.984;2022-09-24T11:36:51;3.92;;;3.47;;
9370;SDS011;4725;48.384;8.984;2022-09-24T11:39:32;4.60;;;4.22;;
9370;SDS011;4725;48.384;8.984;2022-09-24T11:42:11;3.47;;;2.90;;
9370;SDS011;4725;48.384;8.984;2022-09-24T11:47:56;3.08;;;2.63;;
9370;SDS011;4725;48.384;8.984;2022-09-24T11:50:42;4.22;;;3.58;;
9370;SDS011;4725;48.384;8.984;2022-09-24T11:53:19;4.07;;;3.08;;
9370;SDS011;4725;48.384;8.984;2022-09-24T11:55:57;3.95;;;3.55;;
9370;SDS011;4725;48.384;8.984;2022-09-24T11:58:28;5.95;;;4.45;;
9370;SDS011;4725;48.384;8.984;2022-09-24T12:01:01;5.60;;;3.55;;
9370;SDS011;4725;48.384;8.984;2022-09-24T12:03:37;5.63;;;3.55;;
9370;SDS011;4725;48.384;8.984;2022-09-24T12:06:13;4.10;;;3.53;;
9370;SDS011;4725;48.384;8.984;2022-09-24T12:08:45;4.15;;;2.85;;
9370;SDS011;4725;48.384;8.984;2022-09-24T12:11:18;4.65;;;2.80;;
9370;SDS011;4725;48.384;8.984;2022-09-24T12:13:53;2.45;;;2.25;;
9370;SDS011;4725;48.384;8.984;2022-09-24T12:16:25;2.03;;;1.83;;
9370;SDS011;4725;48.384;8.984;2022-09-24T12:18:54;4.22;;;1.90;;
9370;SDS011;4725;48.384;8.984;2022-09-24T12:21:28;2.63;;;2.13;;
9370;SDS011;4725;48.384;8.984;2022-09-24T12:24:00;2.33;;;1.85;;
9370;SDS011;4725;48.384;8.984;2022-09-24T12:26:30;3.38;;;2.42;;
9370;SDS011;4725;48.384;8.984;2022-09-24T12:29:06;3.30;;;2.00;;
9370;SDS011;4725;48.384;8.984;2022-09-24T12:32:12;2.30;;;2.10;;
9370;SDS011;4725;48.384;8.984;2022-09-24T12:35:04;2.35;;;2.13;;
9370;SDS011;4725;48.384;8.984;2022-09-24T12:37:39;3.65;;;2.25;;
9370;SDS011;4725;48.384;8.984;2022-09-24T12:40:13;2.30;;;2.10;;
9370;SDS011;4725;48.384;8.984;2022-09-24T12:42:55;3.63;;;2.00;;
9370;SDS011;4725;48.384;8.984;2022-09-24T12:45:24;2.13;;;1.80;;
9370;SDS011;4725;48.384;8.984;2022-09-24T12:47:52;2.60;;;2.40;;
9370;SDS011;4725;48.384;8.984;2022-09-24T12:50:24;4.03;;;2.42;;
9370;SDS011;4725;48.384;8.984;2022-09-24T12:52:54;3.05;;;2.60;;
9370;SDS011;4725;48.384;8.984;2022-09-24T12:55:22;5.03;;;3.00;;
9370;SDS011;4725;48.384;8.984;2022-09-24T12:57:52;3.35;;;2.70;;
9370;SDS011;4725;48.384;8.984;2022-09-24T13:00:35;3.33;;;2.90;;
9370;SDS011;4725;48.384;8.984;2022-09-24T13:03:04;3.90;;;2.10;;
9370;SDS011;4725;48.384;8.984;2022-09-24T13:05:33;3.47;;;2.50;;
9370;SDS011;4725;48.384;8.984;2022-09-24T13:08:24;3.63;;;2.80;;
9370;SDS011;4725;48.384;8.984;2022-09-24T13:13:57;7.10;;;3.33;;
9370;SDS011;4725;48.384;8.984;2022-09-24T13:16:26;4.63;;;3.27;;
9370;SDS011;4725;48.384;8.984;2022-09-24T13:18:54;3.43;;;3.03;;
9370;SDS011;4725;48.384;8.984;2022-09-24T13:21:24;4.73;;;2.93;;
9370;SDS011;4725;48.384;8.984;2022-09-24T13:23:55;6.60;;;3.07;;
9370;SDS011;4725;48.384;8.984;2022-09-24T13:26:27;2.78;;;2.55;;
9370;SDS011;4725;48.384;8.984;2022-09-24T13:28:58;5.27;;;3.47;;
9370;SDS011;4725;48.384;8.984;2022-09-24T13:31:34;3.58;;;3.28;;
9370;SDS011;4725;48.384;8.984;2022-09-24T13:34:14;3.53;;;2.97;;
9370;SDS011;4725;48.384;8.984;2022-09-24T13:36:47;4.38;;;3.38;;
9370;SDS011;4725;48.384;8.984;2022-09-24T13:39:23;5.78;;;3.92;;
9370;SDS011;4725;48.384;8.984;2022-09-24T13:41:58;5.47;;;3.00;;
9370;SDS011;4725;48.384;8.984;2022-09-24T13:44:32;4.32;;;2.38;;
9370;SDS011;4725;48.384;8.984;2022-09-24T13:47:03;4.22;;;2.75;;
9370;SDS011;4725;48.384;8.984;2022-09-24T13:49:38;3.47;;;2.50;;
9370;SDS011;4725;48.384;8.984;2022-09-24T13:52:11;2.70;;;2.28;;
9370;SDS011;4725;48.384;8.984;2022-09-24T13:54:51;2.60;;;2.40;;
9370;SDS011;4725;48.384;8.984;2022-09-24T13:57:25;4.57;;;2.35;;
9370;SDS011;4725;48.384;8.984;2022-09-24T14:00:04;4.65;;;2.97;;
9370;SDS011;4725;48.384;8.984;2022-09-24T14:02:41;4.43;;;2.88;;
9370;SDS011;4725;48.384;8.984;2022-09-24T14:05:17;5.22;;;3.35;;
9370;SDS011;4725;48.384;8.984;2022-09-24T14:07:52;5.05;;;2.90;;
9370;SDS011;4725;48.384;8.984;2022-09-24T14:10:30;4.78;;;2.60;;
9370;SDS011;4725;48.384;8.984;2022-09-24T14:15:53;4.63;;;2.95;;
9370;SDS011;4725;48.384;8.984;2022-09-24T14:18:22;3.83;;;3.42;;
9370;SDS011;4725;48.384;8.984;2022-09-24T14:20:54;4.55;;;3.22;;
9370;SDS011;4725;48.384;8.984;2022-09-24T14:23:25;7.88;;;3.17;;
9370;SDS011;4725;48.384;8.984;2022-09-24T14:25:57;2.80;;;2.60;;
9370;SDS011;4725;48.384;8.984;2022-09-24T14:28:26;2.53;;;2.30;;
9370;SDS011;4725;48.384;8.984;2022-09-24T14:30:56;2.65;;;2.38;;
9370;SDS011;4725;48.384;8.984;2022-09-24T14:33:25;4.90;;;2.38;;
9370;SDS011;4725;48.384;8.984;2022-09-24T14:35:55;3.30;;;2.30;;
9370;SDS011;4725;48.384;8.984;2022-09-24T14:38:25;4.35;;;2.70;;
9370;SDS011;4725;48.384;8.984;2022-09-24T14:40:54;3.20;;;2.42;;
9370;SDS011;4725;48.384;8.984;2022-09-24T14:43:26;2.88;;;2.20;;
9370;SDS011;4725;48.384;8.984;2022-09-24T14:46:01;2.88;;;2.28;;
9370;SDS011;4725;48.384;8.984;2022-09-24T14:48:32;2.75;;;2.50;;
9370;SDS011;4725;48.384;8.984;2022-09-24T14:50:59;3.03;;;2.47;;
9370;SDS011;4725;48.384;8.984;2022-09-24T14:53:30;3.88;;;2.50;;
9370;SDS011;4725;48.384;8.984;2022-09-24T14:56:05;5.22;;;3.40;;
9370;SDS011;4725;48.384;8.984;2022-09-24T14:58:44;16.27;;;12.23;;
9370;SDS011;4725;48.384;8.984;2022-09-24T15:01:12;9.32;;;7.55;;
9370;SDS011;4725;48.384;8.984;2022-09-24T15:03:41;6.93;;;6.03;;
9370;SDS011;4725;48.384;8.984;2022-09-24T15:06:15;6.90;;;5.32;;
9370;SDS011;4725;48.384;8.984;2022-09-24T15:08:50;3.47;;;3.10;;
9370;SDS011;4725;48.384;8.984;2022-09-24T15:11:22;7.03;;;4.93;;
9370;SDS011;4725;48.384;8.984;2022-09-24T15:13:56;3.22;;;2.92;;
9370;SDS011;4725;48.384;8.984;2022-09-24T15:16:26;5.13;;;4.38;;
9370;SDS011;4725;48.384;8.984;2022-09-24T15:18:57;5.07;;;3.75;;
9370;SDS011;4725;48.384;8.984;2022-09-24T15:21:35;4.57;;;3.60;;
9370;SDS011;4725;48.384;8.984;2022-09-24T15:24:02;3.63;;;3.17;;
9370;SDS011;4725;48.384;8.984;2022-09-24T15:26:31;3.15;;;2.70;;
9370;SDS011;4725;48.384;8.984;2022-09-24T15:29:00;2.60;;;2.40;;
9370;SDS011;4725;48.384;8.984;2022-09-24T15:31:27;3.75;;;3.05;;
9370;SDS011;4725;48.384;8.984;2022-09-24T15:33:55;3.33;;;2.60;;
9370;SDS011;4725;48.384;8.984;2022-09-24T15:36:22;3.45;;;2.70;;
9370;SDS011;4725;48.384;8.984;2022-09-24T15:38:50;3.22;;;2.35;;
9370;SDS011;4725;48.384;8.984;2022-09-24T15:41:18;2.58;;;2.17;;
9370;SDS011;4725;48.384;8.984;2022-09-24T15:43:46;3.40;;;3.10;;
9370;SDS011;4725;48.384;8.984;2022-09-24T15:46:13;2.83;;;2.40;;
9370;SDS011;4725;48.384;8.984;2022-09-24T15:48:40;3.70;;;2.60;;
9370;SDS011;4725;48.384;8.984;2022-09-24T15:51:08;3.28;;;2.65;;
9370;SDS011;4725;48.384;8.984;2022-09-24T15:53:35;2.33;;;2.13;;
9370;SDS011;4725;48.384;8.984;2022-09-24T15:56:02;4.32;;;3.30;;
9370;SDS011;4725;48.384;8.984;2022-09-24T15:58:29;4.15;;;3.35;;
9370;SDS011;4725;48.384;8.984;2022-09-24T16:00:58;4.63;;;3.83;;